createdAt,value
2024-02-18T00:01:07.304Z,98481.25
2024-02-18T00:03:34.041Z,98484.50
2024-02-18T00:06:00.773Z,98490.28
2024-02-18T00:08:27.262Z,98485.75
2024-02-18T00:10:53.863Z,98487.00
2024-02-18T00:13:20.454Z,98489.41
2024-02-18T00:15:46.996Z,98487.75
2024-02-18T00:18:13.495Z,98490.06
2024-02-18T00:20:39.980Z,98487.19
2024-02-18T00:23:06.447Z,98498.97
2024-02-18T00:25:32.888Z,98496.44
2024-02-18T00:27:59.579Z,98496.06
2024-02-18T00:30:26.213Z,98485.75
2024-02-18T00:32:52.793Z,98483.50
2024-02-18T00:35:19.378Z,98485.38
2024-02-18T00:37:45.860Z,98491.97
2024-02-18T00:40:12.405Z,98489.72
2024-02-18T00:42:39.017Z,98487.84
2024-02-18T00:45:05.516Z,98487.84
2024-02-18T00:47:32.009Z,98490.31
2024-02-18T00:49:58.451Z,98482.72
2024-02-18T00:52:24.901Z,98481.47
2024-02-18T00:54:51.392Z,98481.84
2024-02-18T00:57:17.948Z,98477.13
2024-02-18T00:59:44.439Z,98488.69
2024-02-18T01:02:11.017Z,98489.50
2024-02-18T01:04:37.621Z,98480.22
2024-02-18T01:07:04.195Z,98474.69
2024-02-18T01:09:30.782Z,98474.25
2024-02-18T01:11:57.297Z,98470.97
2024-02-18T01:14:23.804Z,98475.09
2024-02-18T01:16:50.313Z,98470.16
2024-02-18T01:19:17.096Z,98471.78
2024-02-18T01:21:43.647Z,98473.66
2024-02-18T01:24:10.365Z,98468.06
2024-02-18T01:26:36.821Z,98473.22
2024-02-18T01:29:03.322Z,98476.34
2024-02-18T01:31:29.766Z,98484.97
2024-02-18T01:33:56.328Z,98478.81
2024-02-18T01:36:22.839Z,98484.97
2024-02-18T01:38:49.307Z,98475.25
2024-02-18T01:41:15.790Z,98480.63
2024-02-18T01:43:42.237Z,98484.56
2024-02-18T01:46:08.748Z,98479.63
2024-02-18T01:48:35.302Z,98485.38
2024-02-18T01:51:01.851Z,98483.94
2024-02-18T01:53:28.344Z,98475.72
2024-02-18T01:55:54.787Z,98482.94
2024-02-18T01:58:21.232Z,98483.53
2024-02-18T02:00:47.756Z,98476.94
2024-02-18T02:03:14.319Z,98483.94
2024-02-18T02:05:41.104Z,98486.63
2024-02-18T02:08:07.725Z,98479.41
2024-02-18T02:10:34.243Z,98468.31
2024-02-18T02:13:00.889Z,98471.41
2024-02-18T02:15:27.446Z,98467.69
2024-02-18T02:17:53.965Z,98461.91
2024-02-18T02:20:20.457Z,98458.63
2024-02-18T02:22:46.883Z,98461.91
2024-02-18T02:25:13.379Z,98464.34
2024-02-18T02:27:40.022Z,98472.38
2024-02-18T02:30:06.495Z,98472.81
2024-02-18T02:32:33.037Z,98476.31
2024-02-18T02:34:59.654Z,98475.22
2024-02-18T02:37:26.119Z,98465.81
2024-02-18T02:39:52.696Z,98472.41
2024-02-18T02:42:19.305Z,98477.13
2024-02-18T02:44:45.894Z,98476.75
2024-02-18T02:47:12.341Z,98462.97
2024-02-18T02:49:38.958Z,98463.34
2024-02-18T02:52:05.565Z,98461.47
2024-02-18T02:54:32.079Z,98468.13
2024-02-18T02:56:58.531Z,98472.00
2024-02-18T02:59:24.969Z,98465.44
2024-02-18T03:01:51.477Z,98459.47
2024-02-18T03:04:18.001Z,98453.91
2024-02-18T03:06:44.581Z,98456.59
2024-02-18T03:09:11.096Z,98459.69
2024-02-18T03:11:37.651Z,98459.50
2024-02-18T03:14:04.105Z,98449.38
2024-02-18T03:16:30.560Z,98452.28
2024-02-18T03:18:57.170Z,98454.53
2024-02-18T03:21:23.733Z,98457.84
2024-02-18T03:23:50.273Z,98449.81
2024-02-18T03:26:16.775Z,98451.63
2024-02-18T03:28:43.247Z,98454.34
2024-02-18T03:31:09.754Z,98460.72
2024-02-18T03:33:36.331Z,98455.34
2024-02-18T03:36:02.846Z,98450.84
2024-02-18T03:38:29.340Z,98452.69
2024-02-18T03:40:55.951Z,98448.97
2024-02-18T03:43:22.404Z,98450.81
2024-02-18T03:45:48.929Z,98439.69
2024-02-18T03:48:15.517Z,98445.06
2024-02-18T03:50:42.000Z,98440.53
2024-02-18T03:53:08.433Z,98444.28
2024-02-18T03:55:34.904Z,98441.56
2024-02-18T03:58:01.431Z,98442.63
2024-02-18T04:00:27.952Z,98441.38
2024-02-18T04:02:54.449Z,98440.97
2024-02-18T04:05:21.333Z,98439.53
2024-02-18T04:07:47.797Z,98435.41
2024-02-18T04:10:15.585Z,98449.19
2024-02-18T04:12:42.728Z,98447.31
2024-02-18T04:15:09.220Z,98453.88
2024-02-18T04:17:35.766Z,98452.06
2024-02-18T04:20:02.340Z,98455.34
2024-02-18T04:22:28.872Z,98467.63
2024-02-18T04:24:55.467Z,98463.94
2024-02-18T04:27:21.985Z,98455.13
2024-02-18T04:29:48.443Z,98458.44
2024-02-18T04:32:14.994Z,98455.56
2024-02-18T04:34:41.562Z,98456.97
2024-02-18T04:37:08.167Z,98463.81
2024-02-18T04:39:34.662Z,98463.41
2024-02-18T04:42:01.187Z,98457.63
2024-02-18T04:44:27.637Z,98460.28
2024-02-18T04:46:54.092Z,98447.94
2024-02-18T04:49:20.756Z,98459.47
2024-02-18T04:51:47.265Z,98457.63
2024-02-18T04:54:13.759Z,98460.72
2024-02-18T04:56:40.201Z,98455.53
2024-02-18T04:59:06.630Z,98460.09
2024-02-18T05:01:33.256Z,98457.19
2024-02-18T05:03:59.872Z,98458.22
2024-02-18T05:06:26.340Z,98454.53
2024-02-18T05:08:52.872Z,98456.41
2024-02-18T05:11:19.384Z,98446.75
2024-02-18T05:13:45.838Z,98443.63
2024-02-18T05:16:12.363Z,98439.75
2024-02-18T05:18:38.979Z,98436.03
2024-02-18T05:21:05.571Z,98452.47
2024-02-18T05:23:32.119Z,98445.50
2024-02-18T05:25:58.584Z,98440.72
2024-02-18T05:28:25.069Z,98434.97
2024-02-18T05:30:51.607Z,98436.25
2024-02-18T05:33:18.309Z,98442.22
2024-02-18T05:35:44.828Z,98435.84
2024-02-18T05:38:11.458Z,98431.09
2024-02-18T05:40:38.015Z,98423.28
2024-02-18T05:43:04.502Z,98428.63
2024-02-18T05:45:30.995Z,98423.47
2024-02-18T05:47:57.621Z,98421.41
2024-02-18T05:50:24.184Z,98414.81
2024-02-18T05:52:50.727Z,98413.59
2024-02-18T05:55:17.321Z,98415.22
2024-02-18T05:57:43.858Z,98415.81
2024-02-18T06:00:10.336Z,98419.53
2024-02-18T06:02:36.849Z,98419.97
2024-02-18T06:05:03.438Z,98424.50
2024-02-18T06:07:30.156Z,98425.31
2024-02-18T06:09:56.792Z,98420.59
2024-02-18T06:12:23.414Z,98414.63
2024-02-18T06:14:49.876Z,98416.28
2024-02-18T06:17:16.381Z,98419.13
2024-02-18T06:19:42.953Z,98418.91
2024-02-18T06:22:09.596Z,98418.09
2024-02-18T06:24:36.102Z,98417.09
2024-02-18T06:27:02.627Z,98415.03
2024-02-18T06:29:29.189Z,98425.50
2024-02-18T06:31:55.709Z,98420.19
2024-02-18T06:34:22.500Z,98416.50
2024-02-18T06:36:49.039Z,98420.19
2024-02-18T06:39:15.541Z,98423.88
2024-02-18T06:41:42.055Z,98431.09
2024-02-18T06:44:08.635Z,98425.72
2024-02-18T06:46:35.095Z,98422.44
2024-02-18T06:49:01.651Z,98436.63
2024-02-18T06:51:28.191Z,98432.94
2024-02-18T06:53:54.692Z,98426.38
2024-02-18T06:56:21.217Z,98433.97
2024-02-18T06:58:47.869Z,98439.50
2024-02-18T07:01:14.488Z,98434.19
2024-02-18T07:03:41.142Z,98434.38
2024-02-18T07:06:07.666Z,98436.25
2024-02-18T07:08:34.149Z,98425.34
2024-02-18T07:11:00.700Z,98435.00
2024-02-18T07:13:27.162Z,98439.28
2024-02-18T07:15:53.627Z,98443.00
2024-02-18T07:18:20.155Z,98438.50
2024-02-18T07:20:46.721Z,98442.81
2024-02-18T07:23:13.460Z,98438.25
2024-02-18T07:25:39.924Z,98439.94
2024-02-18T07:28:06.441Z,98440.31
2024-02-18T07:30:32.953Z,98440.13
2024-02-18T07:32:59.487Z,98436.22
2024-02-18T07:35:26.025Z,98431.91
2024-02-18T07:37:52.495Z,98430.66
2024-02-18T07:40:19.013Z,98440.94
2024-02-18T07:42:45.512Z,98446.09
2024-02-18T07:45:12.044Z,98444.25
2024-02-18T07:47:38.572Z,98444.63
2024-02-18T07:50:05.083Z,98441.16
2024-02-18T07:52:31.572Z,98439.75
2024-02-18T07:54:58.096Z,98438.09
2024-02-18T07:57:24.625Z,98431.06
2024-02-18T07:59:51.104Z,98437.88
2024-02-18T08:02:17.543Z,98429.81
2024-02-18T08:04:44.142Z,98438.88
2024-02-18T08:07:10.779Z,98438.03
2024-02-18T08:09:37.286Z,98437.66
2024-02-18T08:12:03.751Z,98445.66
2024-02-18T08:14:30.249Z,98442.59
2024-02-18T08:16:56.736Z,98439.28
2024-02-18T08:19:23.288Z,98437.84
2024-02-18T08:21:49.885Z,98434.38
2024-02-18T08:24:16.399Z,98437.22
2024-02-18T08:26:42.922Z,98432.06
2024-02-18T08:29:09.374Z,98438.06
2024-02-18T08:31:36.007Z,98444.13
2024-02-18T08:34:02.574Z,98438.19
2024-02-18T08:36:29.271Z,98444.53
2024-02-18T08:38:55.769Z,98445.47
2024-02-18T08:41:22.218Z,98432.69
2024-02-18T08:43:48.736Z,98446.72
2024-02-18T08:46:15.364Z,98436.97
2024-02-18T08:48:42.065Z,98443.03
2024-02-18T08:51:08.541Z,98444.47
2024-02-18T08:53:35.301Z,98443.31
2024-02-18T08:56:01.766Z,98437.41
2024-02-18T08:58:28.226Z,98443.94
2024-02-18T09:00:54.771Z,98441.06
2024-02-18T09:03:21.345Z,98438.47
2024-02-18T09:05:47.813Z,98448.06
2024-02-18T09:08:14.301Z,98447.00
2024-02-18T09:10:40.744Z,98448.84
2024-02-18T09:13:07.337Z,98449.44
2024-02-18T09:15:33.943Z,98444.66
2024-02-18T09:18:00.800Z,98436.25
2024-02-18T09:20:27.397Z,98435.31
2024-02-18T09:22:53.966Z,98441.03
2024-02-18T09:25:20.505Z,98449.53
2024-02-18T09:27:47.106Z,98446.69
2024-02-18T09:30:13.728Z,98449.59
2024-02-18T09:32:40.319Z,98453.78
2024-02-18T09:35:07.140Z,98446.28
2024-02-18T09:37:33.713Z,98442.72
2024-02-18T09:40:00.317Z,98433.00
2024-02-18T09:42:26.813Z,98420.41
2024-02-18T09:44:53.332Z,98431.09
2024-02-18T09:47:19.795Z,98430.34
2024-02-18T09:49:46.398Z,98429.38
2024-02-18T09:52:12.956Z,98421.91
2024-02-18T09:54:39.550Z,98423.78
2024-02-18T09:57:06.050Z,98421.00
2024-02-18T09:59:32.594Z,98412.84
2024-02-18T10:01:59.386Z,98419.78
2024-02-18T10:04:25.985Z,98411.25
2024-02-18T10:06:52.565Z,98409.19
2024-02-18T10:09:19.131Z,98410.41
2024-02-18T10:11:45.575Z,98413.38
2024-02-18T10:14:12.038Z,98417.22
2024-02-18T10:16:38.469Z,98410.94
2024-02-18T10:19:05.037Z,98419.31
2024-02-18T10:21:31.589Z,98417.41
2024-02-18T10:23:58.103Z,98408.81
2024-02-18T10:26:24.658Z,98399.22
2024-02-18T10:28:51.172Z,98397.41
2024-02-18T10:31:17.845Z,98399.22
2024-02-18T10:33:44.478Z,98399.53
2024-02-18T10:36:11.394Z,98402.28
2024-02-18T10:38:37.956Z,98411.22
2024-02-18T10:41:04.465Z,98397.75
2024-02-18T10:43:31.002Z,98394.75
2024-02-18T10:45:57.510Z,98391.63
2024-02-18T10:48:24.079Z,98381.59
2024-02-18T10:50:50.621Z,98384.00
2024-02-18T10:53:17.121Z,98388.19
2024-02-18T10:55:43.558Z,98382.75
2024-02-18T10:58:10.030Z,98385.28
2024-02-18T11:00:36.554Z,98385.59
2024-02-18T11:03:03.212Z,98382.16
2024-02-18T11:05:29.829Z,98378.78
2024-02-18T11:07:56.388Z,98381.41
2024-02-18T11:10:22.925Z,98378.88
2024-02-18T11:12:51.828Z,98378.94
2024-02-18T11:15:18.462Z,98359.66
2024-02-18T11:17:44.897Z,98363.41
2024-02-18T11:20:11.357Z,98381.84
2024-02-18T11:22:37.891Z,98378.41
2024-02-18T11:25:04.524Z,98380.47
2024-02-18T11:27:32.426Z,98377.97
2024-02-18T11:29:58.867Z,98372.16
2024-02-18T11:32:25.291Z,98373.53
2024-02-18T11:34:51.975Z,98374.31
2024-02-18T11:37:18.512Z,98360.22
2024-02-18T11:39:45.011Z,98352.41
2024-02-18T11:42:11.460Z,98353.78
2024-02-18T11:44:37.924Z,98346.22
2024-02-18T11:47:04.430Z,98328.66
2024-02-18T11:49:30.952Z,98339.97
2024-02-18T11:51:57.484Z,98337.16
2024-02-18T11:54:24.229Z,98341.97
2024-02-18T11:56:50.768Z,98342.66
2024-02-18T11:59:17.262Z,98334.94
2024-02-18T12:01:43.863Z,98323.94
2024-02-18T12:04:10.631Z,98319.34
2024-02-18T12:06:37.238Z,98314.91
2024-02-18T12:09:03.691Z,98301.50
2024-02-18T12:11:30.167Z,98301.31
2024-02-18T12:13:56.697Z,98302.91
2024-02-18T12:16:23.319Z,98308.91
2024-02-18T12:18:49.854Z,98299.53
2024-02-18T12:21:16.464Z,98301.50
2024-02-18T12:23:42.914Z,98285.50
2024-02-18T12:26:09.349Z,98288.66
2024-02-18T12:28:35.828Z,98285.41
2024-02-18T12:31:02.323Z,98283.53
2024-02-18T12:33:28.959Z,98276.84
2024-02-18T12:35:55.490Z,98273.31
2024-02-18T12:38:22.020Z,98264.59
2024-02-18T12:40:48.513Z,98258.16
2024-02-18T12:43:40.893Z,98241.63
2024-02-18T12:46:06.052Z,98234.75
2024-02-18T12:48:35.520Z,98240.41
2024-02-18T12:51:02.144Z,98260.53
2024-02-18T12:53:28.721Z,98262.34
2024-02-18T12:55:55.222Z,98253.38
2024-02-18T12:58:21.662Z,98244.59
2024-02-18T13:00:48.291Z,98239.09
2024-02-18T13:03:14.873Z,98253.44
2024-02-18T13:05:41.526Z,98264.63
2024-02-18T13:08:08.041Z,98268.00
2024-02-18T13:10:34.497Z,98250.56
2024-02-18T13:13:01.199Z,98240.50
2024-02-18T13:15:27.772Z,98242.44
2024-02-18T13:17:54.293Z,98245.66
2024-02-18T13:20:20.842Z,98253.72
2024-02-18T13:22:47.318Z,98250.19
2024-02-18T13:25:13.969Z,98250.91
2024-02-18T13:27:40.641Z,98250.09
2024-02-18T13:30:07.150Z,98260.19
2024-02-18T13:32:33.692Z,98246.75
2024-02-18T13:35:00.330Z,98242.72
2024-02-18T13:37:26.864Z,98215.91
2024-02-18T13:39:53.508Z,98206.72
2024-02-18T13:42:22.075Z,98201.06
2024-02-18T13:44:48.834Z,98199.91
2024-02-18T13:47:15.378Z,98192.22
2024-02-18T13:49:41.994Z,98188.63
2024-02-18T13:52:08.597Z,98207.56
2024-02-18T13:54:35.149Z,98200.66
2024-02-18T13:57:01.653Z,98201.47
2024-02-18T13:59:28.141Z,98185.66
2024-02-18T14:01:54.696Z,98190.69
2024-02-18T14:04:21.229Z,98186.66
2024-02-18T14:06:47.713Z,98181.47
2024-02-18T14:09:14.419Z,98170.94
2024-02-18T14:11:40.912Z,98169.91
2024-02-18T14:14:07.472Z,98172.44
2024-02-18T14:16:33.983Z,98175.63
2024-02-18T14:19:00.760Z,98174.25
2024-02-18T14:21:27.324Z,98171.69
2024-02-18T14:23:53.769Z,98167.34
2024-02-18T14:26:20.256Z,98174.09
2024-02-18T14:28:46.756Z,98160.00
2024-02-18T14:31:13.284Z,98152.78
2024-02-18T14:33:39.951Z,98151.63
2024-02-18T14:36:06.636Z,98151.19
2024-02-18T14:38:33.057Z,98153.66
2024-02-18T14:40:59.519Z,98153.91
2024-02-18T14:43:25.998Z,98146.56
2024-02-18T14:45:52.476Z,98149.69
2024-02-18T14:48:19.004Z,98146.81
2024-02-18T14:50:45.519Z,98149.03
2024-02-18T14:53:11.994Z,98152.03
2024-02-18T14:55:38.449Z,98155.53
2024-02-18T14:58:05.015Z,98158.69
2024-02-18T15:00:31.569Z,98155.22
2024-02-18T15:02:58.101Z,98157.69
2024-02-18T15:05:24.668Z,98160.06
2024-02-18T15:07:51.207Z,98156.53
2024-02-18T15:10:17.829Z,98157.25
2024-02-18T15:12:44.351Z,98168.09
2024-02-18T15:15:10.925Z,98163.16
2024-02-18T15:17:37.408Z,98156.50
2024-02-18T15:20:03.888Z,98164.66
2024-02-18T15:22:30.365Z,98173.72
2024-02-18T15:24:56.896Z,98167.69
2024-02-18T15:27:23.429Z,98165.34
2024-02-18T15:29:49.980Z,98160.22
2024-02-18T15:32:16.512Z,98144.34
2024-02-18T15:34:43.096Z,98141.78
2024-02-18T15:37:09.743Z,98144.59
2024-02-18T15:39:36.347Z,98143.19
2024-02-18T15:42:02.820Z,98142.25
2024-02-18T15:44:29.316Z,98125.41
2024-02-18T15:46:55.760Z,98125.19
2024-02-18T15:49:22.342Z,98126.69
2024-02-18T15:51:48.938Z,98123.19
2024-02-18T15:54:15.410Z,98123.41
2024-02-18T15:56:41.922Z,98125.19
2024-02-18T15:59:09.486Z,98123.88
2024-02-18T16:01:36.183Z,98121.69
2024-02-18T16:04:02.790Z,98125.06
2024-02-18T16:06:29.370Z,98133.44
2024-02-18T16:08:55.942Z,98121.63
2024-02-18T16:11:23.970Z,98122.06
2024-02-18T16:13:52.271Z,98124.88
2024-02-18T16:16:19.067Z,98128.56
2024-02-18T16:18:45.812Z,98129.44
2024-02-18T16:21:12.393Z,98122.19
2024-02-18T16:23:38.854Z,98122.19
2024-02-18T16:26:05.294Z,98125.41
2024-02-18T16:28:31.775Z,98130.88
2024-02-18T16:30:58.420Z,98124.88
2024-02-18T16:33:24.914Z,98127.19
2024-02-18T16:35:51.363Z,98135.50
2024-02-18T16:38:17.816Z,98145.59
2024-02-18T16:40:44.309Z,98154.59
2024-02-18T16:43:10.876Z,98167.06
2024-02-18T16:45:37.356Z,98169.72
2024-02-18T16:48:03.921Z,98169.56
2024-02-18T16:50:30.420Z,98160.16
2024-02-18T16:52:56.868Z,98167.63
2024-02-18T16:55:23.378Z,98168.06
2024-02-18T16:57:49.885Z,98163.59
2024-02-18T17:00:16.418Z,98169.44
2024-02-18T17:02:45.657Z,98164.03
2024-02-18T17:05:12.765Z,98157.94
2024-02-18T17:07:39.272Z,98162.22
2024-02-18T17:10:05.757Z,98157.44
2024-02-18T17:12:32.235Z,98144.69
2024-02-18T17:14:58.759Z,98163.59
2024-02-18T17:17:25.303Z,98179.53
2024-02-18T17:19:52.186Z,98179.38
2024-02-18T17:22:19.031Z,98173.72
2024-02-18T17:24:45.551Z,98172.56
2024-02-18T17:27:12.155Z,98174.75
2024-02-18T17:29:38.705Z,98181.97
2024-02-18T17:32:05.170Z,98195.66
2024-02-18T17:34:31.752Z,98192.59
2024-02-18T17:36:58.430Z,98188.09
2024-02-18T17:39:27.730Z,98188.00
2024-02-18T17:41:54.249Z,98196.84
2024-02-18T17:44:20.887Z,98205.63
2024-02-18T17:46:47.358Z,98209.06
2024-02-18T17:49:14.043Z,98222.63
2024-02-18T17:51:40.643Z,98220.97
2024-02-18T17:54:07.124Z,98214.66
2024-02-18T17:56:34.966Z,98221.00
2024-02-18T17:59:01.673Z,98214.00
2024-02-18T18:01:28.333Z,98215.91
2024-02-18T18:03:55.045Z,98206.56
2024-02-18T18:06:21.541Z,98211.63
2024-02-18T18:08:48.002Z,98223.41
2024-02-18T18:11:14.556Z,98220.28
2024-02-18T18:13:41.083Z,98218.84
2024-02-18T18:16:07.608Z,98219.97
2024-02-18T18:18:34.125Z,98221.50
2024-02-18T18:21:00.584Z,98225.81
2024-02-18T18:23:27.044Z,98215.44
2024-02-18T18:25:53.577Z,98229.22
2024-02-18T18:28:20.085Z,98219.38
2024-02-18T18:30:48.864Z,98233.47
2024-02-18T18:33:15.640Z,98239.34
2024-02-18T18:35:42.168Z,98236.44
2024-02-18T18:38:08.634Z,98251.44
2024-02-18T18:40:35.127Z,98258.91
2024-02-18T18:43:01.882Z,98266.69
2024-02-18T18:45:28.315Z,98260.81
2024-02-18T18:47:54.801Z,98263.44
2024-02-18T18:50:21.384Z,98272.97
2024-02-18T18:52:47.894Z,98272.34
2024-02-18T18:55:14.518Z,98268.84
2024-02-18T18:57:41.132Z,98267.84
2024-02-18T19:00:07.671Z,98278.91
2024-02-18T19:02:34.157Z,98290.41
2024-02-18T19:05:01.021Z,98302.59
2024-02-18T19:07:27.615Z,98301.34
2024-02-18T19:09:54.138Z,98304.00
2024-02-18T19:12:20.618Z,98303.63
2024-02-18T19:14:50.517Z,98298.28
2024-02-18T19:17:17.453Z,98297.25
2024-02-18T19:19:44.210Z,98300.16
2024-02-18T19:22:10.725Z,98306.53
2024-02-18T19:24:37.339Z,98306.91
2024-02-18T19:27:06.156Z,98314.28
2024-02-18T19:29:32.661Z,98316.75
2024-02-18T19:31:59.165Z,98329.03
2024-02-18T19:34:25.770Z,98326.34
2024-02-18T19:36:52.350Z,98339.72
2024-02-18T19:39:18.953Z,98350.41
2024-02-18T19:41:45.493Z,98356.91
2024-02-18T19:44:12.126Z,98361.34
2024-02-18T19:46:38.718Z,98372.09
2024-02-18T19:49:05.292Z,98379.63
2024-02-18T19:51:31.929Z,98383.91
2024-02-18T19:53:58.458Z,98389.03
2024-02-18T19:56:24.959Z,98379.78
2024-02-18T19:58:51.540Z,98361.13
2024-02-18T20:01:18.089Z,98339.06
2024-02-18T20:03:46.620Z,98319.97
2024-02-18T20:06:13.355Z,98309.53
2024-02-18T20:08:39.879Z,98333.41
2024-02-18T20:11:06.380Z,98354.78
2024-02-18T20:13:32.866Z,98377.84
2024-02-18T20:15:59.519Z,98381.94
2024-02-18T20:18:28.347Z,98382.13
2024-02-18T20:20:55.181Z,98371.47
2024-02-18T20:23:21.680Z,98378.47
2024-02-18T20:25:48.258Z,98379.06
2024-02-18T20:28:14.823Z,98384.78
2024-02-18T20:30:41.408Z,98390.88
2024-02-18T20:33:08.050Z,98400.78
2024-02-18T20:35:34.721Z,98406.31
2024-02-18T20:38:03.885Z,98392.41
2024-02-18T20:40:30.419Z,98397.69
2024-02-18T20:42:56.940Z,98380.63
2024-02-18T20:45:23.566Z,98384.50
2024-02-18T20:47:50.059Z,98383.06
2024-02-18T20:50:18.901Z,98386.31
2024-02-18T20:52:45.352Z,98389.00
2024-02-18T20:55:12.326Z,98387.72
2024-02-18T20:57:38.788Z,98385.88
2024-02-18T21:00:05.375Z,98386.19
2024-02-18T21:02:32.002Z,98388.59
2024-02-18T21:04:58.488Z,98388.06
2024-02-18T21:07:25.018Z,98392.75
2024-02-18T21:09:51.555Z,98378.25
2024-02-18T21:12:18.034Z,98398.81
2024-02-18T21:14:44.589Z,98399.19
2024-02-18T21:17:13.361Z,98393.63
2024-02-18T21:19:39.976Z,98401.22
2024-02-18T21:22:06.793Z,98393.28
2024-02-18T21:24:33.348Z,98394.28
2024-02-18T21:26:59.903Z,98399.63
2024-02-18T21:29:26.360Z,98395.81
2024-02-18T21:31:52.833Z,98404.13
2024-02-18T21:34:19.476Z,98407.63
2024-02-18T21:36:46.176Z,98406.91
2024-02-18T21:39:12.853Z,98414.59
2024-02-18T21:41:39.322Z,98410.69
2024-02-18T21:44:06.064Z,98398.03
2024-02-18T21:46:32.540Z,98393.13
2024-02-18T21:48:59.111Z,98388.41
2024-02-18T21:51:25.769Z,98389.03
2024-02-18T21:53:52.421Z,98374.09
2024-02-18T21:56:26.239Z,98376.16
2024-02-18T21:58:52.686Z,98376.16
2024-02-18T22:01:19.254Z,98388.63
2024-02-18T22:03:45.812Z,98382.28
2024-02-18T22:06:12.353Z,98381.09
2024-02-18T22:08:38.949Z,98368.56
2024-02-18T22:11:05.575Z,98379.97
2024-02-18T22:13:32.384Z,98393.09
2024-02-18T22:15:59.067Z,98397.81
2024-02-18T22:18:29.502Z,98403.47
2024-02-18T22:20:56.049Z,98398.63
2024-02-18T22:23:25.476Z,98408.06
2024-02-18T22:25:52.018Z,98419.13
2024-02-18T22:28:18.521Z,98415.84
2024-02-18T22:30:45.090Z,98418.97
2024-02-18T22:33:11.677Z,98409.91
2024-02-18T22:35:38.188Z,98403.63
2024-02-18T22:38:04.671Z,98392.34
2024-02-18T22:40:31.122Z,98382.59
2024-02-18T22:42:57.618Z,98387.47
2024-02-18T22:45:26.638Z,98389.78
2024-02-18T22:47:54.492Z,98384.84
2024-02-18T22:50:20.954Z,98389.91
2024-02-18T22:52:47.402Z,98391.44
2024-02-18T22:55:13.956Z,98386.81
2024-02-18T22:57:40.582Z,98386.16
2024-02-18T23:00:07.137Z,98379.91
2024-02-18T23:02:33.653Z,98375.09
2024-02-18T23:05:00.152Z,98373.94
2024-02-18T23:07:26.771Z,98373.06
2024-02-18T23:09:53.379Z,98372.13
2024-02-18T23:12:19.890Z,98374.34
2024-02-18T23:14:46.336Z,98379.09
2024-02-18T23:17:12.802Z,98377.66
2024-02-18T23:19:39.334Z,98385.34
2024-02-18T23:22:05.914Z,98386.22
2024-02-18T23:24:32.477Z,98388.53
2024-02-18T23:26:58.945Z,98389.72
2024-02-18T23:29:25.578Z,98382.09
2024-02-18T23:31:52.036Z,98382.00
2024-02-18T23:34:18.758Z,98379.91
2024-02-18T23:36:45.456Z,98380.81
2024-02-18T23:39:11.928Z,98377.56
2024-02-18T23:41:38.381Z,98374.72
2024-02-18T23:44:04.821Z,98377.28
2024-02-18T23:46:31.319Z,98377.13
2024-02-18T23:48:57.856Z,98363.44
2024-02-18T23:51:24.460Z,98363.22
2024-02-18T23:53:50.988Z,98370.06
2024-02-18T23:56:17.436Z,98371.63
2024-02-18T23:58:43.910Z,98375.88
